sensor_id;sensor_type;location;lat;lon;timestamp;temperature;humidity
24408;DHT22;12542;50.924;4.516;2023-08-08T00:01:07;15.60;99.90
24408;DHT22;12542;50.924;4.516;2023-08-08T00:03:34;15.60;99.90
24408;DHT22;12542;50.924;4.516;2023-08-08T00:06:02;15.50;99.90
24408;DHT22;12542;50.924;4.516;2023-08-08T00:08:28;15.40;99.90
24408;DHT22;12542;50.924;4.516;2023-08-08T00:10:53;15.40;99.90
24408;DHT22;12542;50.924;4.516;2023-08-08T00:13:19;15.30;99.90
24408;DHT22;12542;50.924;4.516;2023-08-08T00:15:45;15.30;99.90
24408;DHT22;12542;50.924;4.516;2023-08-08T00:18:10;15.30;99.90
24408;DHT22;12542;50.924;4.516;2023-08-08T00:20:36;15.30;99.90
24408;DHT22;12542;50.924;4.516;2023-08-08T00:23:02;15.30;99.90
24408;DHT22;12542;50.924;4.516;2023-08-08T00:25:27;15.20;99.90
24408;DHT22;12542;50.924;4.516;2023-08-08T00:27:53;15.20;99.90
24408;DHT22;12542;50.924;4.516;2023-08-08T00:30:19;15.10;99.90
24408;DHT22;12542;50.924;4.516;2023-08-08T00:32:45;15.20;99.90
24408;DHT22;12542;50.924;4.516;2023-08-08T00:35:10;15.30;99.90
24408;DHT22;12542;50.924;4.516;2023-08-08T00:37:38;15.20;99.90
24408;DHT22;12542;50.924;4.516;2023-08-08T00:40:04;15.20;99.90
24408;DHT22;12542;50.924;4.516;2023-08-08T00:42:30;15.30;99.90
24408;DHT22;12542;50.924;4.516;2023-08-08T00:45:08;15.30;99.90
24408;DHT22;12542;50.924;4.516;2023-08-08T00:47:34;15.30;99.90
24408;DHT22;12542;50.924;4.516;2023-08-08T00:50:00;15.30;99.90
24408;DHT22;12542;50.924;4.516;2023-08-08T00:52:26;15.20;99.90
24408;DHT22;12542;50.924;4.516;2023-08-08T00:54:52;15.20;99.90
24408;DHT22;12542;50.924;4.516;2023-08-08T00:57:18;15.30;99.90
24408;DHT22;12542;50.924;4.516;2023-08-08T00:59:45;15.10;99.90
24408;DHT22;12542;50.924;4.516;2023-08-08T01:02:11;15.10;99.90
24408;DHT22;12542;50.924;4.516;2023-08-08T01:04:37;15.10;99.90
24408;DHT22;12542;50.924;4.516;2023-08-08T01:07:16;15.00;99.90
24408;DHT22;12542;50.924;4.516;2023-08-08T01:10:20;15.10;99.90
24408;DHT22;12542;50.924;4.516;2023-08-08T01:12:54;15.20;99.90
24408;DHT22;12542;50.924;4.516;2023-08-08T01:15:21;15.10;99.90
24408;DHT22;12542;50.924;4.516;2023-08-08T01:17:48;15.10;99.90
24408;DHT22;12542;50.924;4.516;2023-08-08T01:20:14;15.10;99.90
24408;DHT22;12542;50.924;4.516;2023-08-08T01:23:02;15.00;99.90
24408;DHT22;12542;50.924;4.516;2023-08-08T01:25:30;15.00;99.90
24408;DHT22;12542;50.924;4.516;2023-08-08T01:27:56;15.00;99.90
24408;DHT22;12542;50.924;4.516;2023-08-08T01:30:22;15.00;99.90
24408;DHT22;12542;50.924;4.516;2023-08-08T01:32:47;14.90;99.90
24408;DHT22;12542;50.924;4.516;2023-08-08T01:35:15;14.90;99.90
24408;DHT22;12542;50.924;4.516;2023-08-08T01:37:49;14.90;99.90
24408;DHT22;12542;50.924;4.516;2023-08-08T01:40:21;14.80;99.90
24408;DHT22;12542;50.924;4.516;2023-08-08T01:42:48;14.80;99.90
24408;DHT22;12542;50.924;4.516;2023-08-08T01:45:15;14.70;99.90
24408;DHT22;12542;50.924;4.516;2023-08-08T01:47:41;14.80;99.90
24408;DHT22;12542;50.924;4.516;2023-08-08T01:50:08;14.90;99.90
24408;DHT22;12542;50.924;4.516;2023-08-08T01:52:34;14.80;99.90
24408;DHT22;12542;50.924;4.516;2023-08-08T01:55:00;14.70;99.90
24408;DHT22;12542;50.924;4.516;2023-08-08T01:57:26;14.70;99.90
24408;DHT22;12542;50.924;4.516;2023-08-08T01:59:54;14.70;99.90
24408;DHT22;12542;50.924;4.516;2023-08-08T02:02:21;14.70;99.90
24408;DHT22;12542;50.924;4.516;2023-08-08T02:04:49;14.70;99.90
24408;DHT22;12542;50.924;4.516;2023-08-08T02:07:15;14.70;99.90
24408;DHT22;12542;50.924;4.516;2023-08-08T02:09:43;14.80;99.90
24408;DHT22;12542;50.924;4.516;2023-08-08T02:12:11;14.60;99.90
24408;DHT22;12542;50.924;4.516;2023-08-08T02:14:37;14.60;99.90
24408;DHT22;12542;50.924;4.516;2023-08-08T02:17:03;14.70;99.90
24408;DHT22;12542;50.924;4.516;2023-08-08T02:19:28;14.80;99.90
24408;DHT22;12542;50.924;4.516;2023-08-08T02:21:55;14.80;99.90
24408;DHT22;12542;50.924;4.516;2023-08-08T02:24:21;14.80;99.90
24408;DHT22;12542;50.924;4.516;2023-08-08T02:26:47;14.70;99.90
24408;DHT22;12542;50.924;4.516;2023-08-08T02:29:12;14.80;99.90
24408;DHT22;12542;50.924;4.516;2023-08-08T02:31:38;14.80;99.90
24408;DHT22;12542;50.924;4.516;2023-08-08T02:34:03;14.80;99.90
24408;DHT22;12542;50.924;4.516;2023-08-08T02:36:29;14.80;99.90
24408;DHT22;12542;50.924;4.516;2023-08-08T02:38:55;14.80;99.90
24408;DHT22;12542;50.924;4.516;2023-08-08T02:41:20;14.80;99.90
24408;DHT22;12542;50.924;4.516;2023-08-08T02:43:46;14.80;99.90
24408;DHT22;12542;50.924;4.516;2023-08-08T02:46:12;14.70;99.90
24408;DHT22;12542;50.924;4.516;2023-08-08T02:48:38;14.80;99.90
24408;DHT22;12542;50.924;4.516;2023-08-08T02:51:03;14.70;99.90
24408;DHT22;12542;50.924;4.516;2023-08-08T02:53:29;14.70;99.90
24408;DHT22;12542;50.924;4.516;2023-08-08T02:55:55;14.60;99.90
24408;DHT22;12542;50.924;4.516;2023-08-08T02:58:20;14.60;99.90
24408;DHT22;12542;50.924;4.516;2023-08-08T03:00:46;14.60;99.90
24408;DHT22;12542;50.924;4.516;2023-08-08T03:03:12;14.60;99.90
24408;DHT22;12542;50.924;4.516;2023-08-08T03:05:37;14.60;99.90
24408;DHT22;12542;50.924;4.516;2023-08-08T03:08:03;14.50;99.90
24408;DHT22;12542;50.924;4.516;2023-08-08T03:10:29;14.40;99.90
24408;DHT22;12542;50.924;4.516;2023-08-08T03:12:54;14.50;99.90
24408;DHT22;12542;50.924;4.516;2023-08-08T03:15:20;14.50;99.90
24408;DHT22;12542;50.924;4.516;2023-08-08T03:17:46;14.50;99.90
24408;DHT22;12542;50.924;4.516;2023-08-08T03:20:14;14.50;99.90
24408;DHT22;12542;50.924;4.516;2023-08-08T03:22:42;14.50;99.90
24408;DHT22;12542;50.924;4.516;2023-08-08T03:25:07;14.40;99.90
24408;DHT22;12542;50.924;4.516;2023-08-08T03:27:33;14.30;99.90
24408;DHT22;12542;50.924;4.516;2023-08-08T03:29:59;14.40;99.90
24408;DHT22;12542;50.924;4.516;2023-08-08T03:32:25;14.40;99.90
24408;DHT22;12542;50.924;4.516;2023-08-08T03:34:50;14.40;99.90
24408;DHT22;12542;50.924;4.516;2023-08-08T03:37:16;14.50;99.90
24408;DHT22;12542;50.924;4.516;2023-08-08T03:39:42;14.40;99.90
24408;DHT22;12542;50.924;4.516;2023-08-08T03:42:08;14.40;99.90
24408;DHT22;12542;50.924;4.516;2023-08-08T03:44:33;14.30;99.90
24408;DHT22;12542;50.924;4.516;2023-08-08T03:46:59;14.20;99.90
24408;DHT22;12542;50.924;4.516;2023-08-08T03:49:25;14.30;99.90
24408;DHT22;12542;50.924;4.516;2023-08-08T03:51:51;14.40;99.90
24408;DHT22;12542;50.924;4.516;2023-08-08T03:54:17;14.30;99.90
24408;DHT22;12542;50.924;4.516;2023-08-08T03:56:43;14.30;99.90
24408;DHT22;12542;50.924;4.516;2023-08-08T03:59:09;14.30;99.90
24408;DHT22;12542;50.924;4.516;2023-08-08T04:01:35;14.30;99.90
24408;DHT22;12542;50.924;4.516;2023-08-08T04:04:03;14.20;99.90
24408;DHT22;12542;50.924;4.516;2023-08-08T04:06:29;14.20;99.90
24408;DHT22;12542;50.924;4.516;2023-08-08T04:08:55;14.10;99.90
24408;DHT22;12542;50.924;4.516;2023-08-08T04:11:23;14.20;99.90
24408;DHT22;12542;50.924;4.516;2023-08-08T04:13:51;14.10;99.90
24408;DHT22;12542;50.924;4.516;2023-08-08T04:16:16;14.20;99.90
24408;DHT22;12542;50.924;4.516;2023-08-08T04:18:42;14.20;99.90
24408;DHT22;12542;50.924;4.516;2023-08-08T04:23:35;14.30;99.90
24408;DHT22;12542;50.924;4.516;2023-08-08T04:26:00;14.20;99.90
24408;DHT22;12542;50.924;4.516;2023-08-08T04:30:52;14.20;99.90
24408;DHT22;12542;50.924;4.516;2023-08-08T04:33:18;14.20;99.90
24408;DHT22;12542;50.924;4.516;2023-08-08T04:35:43;14.30;99.90
24408;DHT22;12542;50.924;4.516;2023-08-08T04:38:09;14.40;99.90
24408;DHT22;12542;50.924;4.516;2023-08-08T04:40:34;14.50;99.90
24408;DHT22;12542;50.924;4.516;2023-08-08T04:43:00;15.90;99.90
24408;DHT22;12542;50.924;4.516;2023-08-08T04:45:26;14.70;99.90
24408;DHT22;12542;50.924;4.516;2023-08-08T04:47:54;14.80;99.90
24408;DHT22;12542;50.924;4.516;2023-08-08T04:50:20;15.20;99.90
24408;DHT22;12542;50.924;4.516;2023-08-08T04:52:46;15.70;99.90
24408;DHT22;12542;50.924;4.516;2023-08-08T04:55:11;16.10;99.90
24408;DHT22;12542;50.924;4.516;2023-08-08T04:57:37;16.70;99.90
24408;DHT22;12542;50.924;4.516;2023-08-08T05:00:03;17.40;99.90
24408;DHT22;12542;50.924;4.516;2023-08-08T05:02:31;18.10;99.90
24408;DHT22;12542;50.924;4.516;2023-08-08T05:04:57;18.40;99.90
24408;DHT22;12542;50.924;4.516;2023-08-08T05:07:22;18.70;99.90
24408;DHT22;12542;50.924;4.516;2023-08-08T05:09:48;19.90;99.90
24408;DHT22;12542;50.924;4.516;2023-08-08T05:12:14;20.20;99.90
24408;DHT22;12542;50.924;4.516;2023-08-08T05:14:39;20.80;99.90
24408;DHT22;12542;50.924;4.516;2023-08-08T05:21:57;21.90;99.90
24408;DHT22;12542;50.924;4.516;2023-08-08T05:24:23;22.70;99.90
24408;DHT22;12542;50.924;4.516;2023-08-08T05:26:49;23.50;99.90
24408;DHT22;12542;50.924;4.516;2023-08-08T05:31:41;24.00;99.90
24408;DHT22;12542;50.924;4.516;2023-08-08T05:34:06;24.50;99.90
24408;DHT22;12542;50.924;4.516;2023-08-08T05:36:32;24.80;99.90
24408;DHT22;12542;50.924;4.516;2023-08-08T05:38:58;24.80;99.90
24408;DHT22;12542;50.924;4.516;2023-08-08T05:41:24;24.50;99.90
24408;DHT22;12542;50.924;4.516;2023-08-08T05:43:50;24.60;99.90
24408;DHT22;12542;50.924;4.516;2023-08-08T05:46:15;25.40;99.90
24408;DHT22;12542;50.924;4.516;2023-08-08T05:48:41;25.40;99.90
24408;DHT22;12542;50.924;4.516;2023-08-08T05:51:07;25.90;99.90
24408;DHT22;12542;50.924;4.516;2023-08-08T05:53:32;26.10;99.90
24408;DHT22;12542;50.924;4.516;2023-08-08T05:55:58;27.10;99.90
24408;DHT22;12542;50.924;4.516;2023-08-08T05:58:24;27.10;99.90
24408;DHT22;12542;50.924;4.516;2023-08-08T06:00:50;24.20;99.90
24408;DHT22;12542;50.924;4.516;2023-08-08T06:03:16;23.80;99.90
24408;DHT22;12542;50.924;4.516;2023-08-08T06:05:41;22.20;99.90
24408;DHT22;12542;50.924;4.516;2023-08-08T06:08:07;21.20;99.90
24408;DHT22;12542;50.924;4.516;2023-08-08T06:10:37;20.50;99.90
24408;DHT22;12542;50.924;4.516;2023-08-08T06:13:02;19.80;99.90
24408;DHT22;12542;50.924;4.516;2023-08-08T06:15:28;19.10;99.90
24408;DHT22;12542;50.924;4.516;2023-08-08T06:17:54;19.10;99.90
24408;DHT22;12542;50.924;4.516;2023-08-08T06:20:20;19.20;99.90
24408;DHT22;12542;50.924;4.516;2023-08-08T06:22:45;20.10;99.90
24408;DHT22;12542;50.924;4.516;2023-08-08T06:25:11;21.10;99.90
24408;DHT22;12542;50.924;4.516;2023-08-08T06:27:37;22.50;99.90
24408;DHT22;12542;50.924;4.516;2023-08-08T06:30:03;23.90;99.90
24408;DHT22;12542;50.924;4.516;2023-08-08T06:34:55;25.60;99.90
24408;DHT22;12542;50.924;4.516;2023-08-08T06:37:20;27.30;99.90
24408;DHT22;12542;50.924;4.516;2023-08-08T06:42:12;27.00;99.80
24408;DHT22;12542;50.924;4.516;2023-08-08T06:44:44;26.70;99.90
24408;DHT22;12542;50.924;4.516;2023-08-08T06:47:11;26.00;99.90
24408;DHT22;12542;50.924;4.516;2023-08-08T06:49:37;26.30;99.90
24408;DHT22;12542;50.924;4.516;2023-08-08T06:52:04;26.00;99.90
24408;DHT22;12542;50.924;4.516;2023-08-08T06:54:31;25.90;99.90
24408;DHT22;12542;50.924;4.516;2023-08-08T06:56:59;25.50;99.90
24408;DHT22;12542;50.924;4.516;2023-08-08T06:59:25;24.80;99.90
24408;DHT22;12542;50.924;4.516;2023-08-08T07:01:51;23.80;99.90
24408;DHT22;12542;50.924;4.516;2023-08-08T07:04:17;23.20;99.90
24408;DHT22;12542;50.924;4.516;2023-08-08T07:06:44;22.90;99.90
24408;DHT22;12542;50.924;4.516;2023-08-08T07:09:12;22.90;99.90
24408;DHT22;12542;50.924;4.516;2023-08-08T07:11:40;22.90;99.90
24408;DHT22;12542;50.924;4.516;2023-08-08T07:14:06;22.80;99.90
24408;DHT22;12542;50.924;4.516;2023-08-08T07:16:31;22.80;99.90
24408;DHT22;12542;50.924;4.516;2023-08-08T07:18:57;22.80;99.90
24408;DHT22;12542;50.924;4.516;2023-08-08T07:21:23;22.50;99.90
24408;DHT22;12542;50.924;4.516;2023-08-08T07:23:48;22.40;99.90
24408;DHT22;12542;50.924;4.516;2023-08-08T07:26:14;22.20;99.90
24408;DHT22;12542;50.924;4.516;2023-08-08T07:28:40;22.30;99.90
24408;DHT22;12542;50.924;4.516;2023-08-08T07:31:06;21.80;99.90
24408;DHT22;12542;50.924;4.516;2023-08-08T07:33:31;21.80;99.90
24408;DHT22;12542;50.924;4.516;2023-08-08T07:35:57;21.70;99.90
24408;DHT22;12542;50.924;4.516;2023-08-08T07:38:23;21.50;99.90
24408;DHT22;12542;50.924;4.516;2023-08-08T07:40:48;21.50;99.90
24408;DHT22;12542;50.924;4.516;2023-08-08T07:43:14;21.40;99.90
24408;DHT22;12542;50.924;4.516;2023-08-08T07:45:40;21.40;99.90
24408;DHT22;12542;50.924;4.516;2023-08-08T07:48:06;21.20;99.90
24408;DHT22;12542;50.924;4.516;2023-08-08T07:50:32;21.10;99.90
24408;DHT22;12542;50.924;4.516;2023-08-08T07:52:58;20.70;99.90
24408;DHT22;12542;50.924;4.516;2023-08-08T07:55:23;20.90;99.90
24408;DHT22;12542;50.924;4.516;2023-08-08T07:57:49;20.80;99.90
24408;DHT22;12542;50.924;4.516;2023-08-08T08:00:15;21.10;99.90
24408;DHT22;12542;50.924;4.516;2023-08-08T08:02:44;21.20;99.90
24408;DHT22;12542;50.924;4.516;2023-08-08T08:05:11;21.30;99.90
24408;DHT22;12542;50.924;4.516;2023-08-08T08:07:38;21.60;99.90
24408;DHT22;12542;50.924;4.516;2023-08-08T08:10:05;21.40;99.90
24408;DHT22;12542;50.924;4.516;2023-08-08T08:12:31;21.40;99.90
24408;DHT22;12542;50.924;4.516;2023-08-08T08:14:58;21.50;99.90
24408;DHT22;12542;50.924;4.516;2023-08-08T08:17:24;21.40;99.90
24408;DHT22;12542;50.924;4.516;2023-08-08T08:19:50;21.40;99.90
24408;DHT22;12542;50.924;4.516;2023-08-08T08:22:17;21.30;99.90
24408;DHT22;12542;50.924;4.516;2023-08-08T08:24:42;21.40;99.90
24408;DHT22;12542;50.924;4.516;2023-08-08T08:27:08;21.40;99.90
24408;DHT22;12542;50.924;4.516;2023-08-08T08:29:34;21.30;99.90
24408;DHT22;12542;50.924;4.516;2023-08-08T08:32:02;21.10;99.90
24408;DHT22;12542;50.924;4.516;2023-08-08T08:34:28;21.20;99.90
24408;DHT22;12542;50.924;4.516;2023-08-08T08:36:53;21.00;99.90
24408;DHT22;12542;50.924;4.516;2023-08-08T08:39:19;21.10;99.90
24408;DHT22;12542;50.924;4.516;2023-08-08T08:41:49;20.90;99.90
24408;DHT22;12542;50.924;4.516;2023-08-08T08:44:16;21.10;99.90
24408;DHT22;12542;50.924;4.516;2023-08-08T08:46:42;21.10;99.90
24408;DHT22;12542;50.924;4.516;2023-08-08T08:49:09;20.90;99.90
24408;DHT22;12542;50.924;4.516;2023-08-08T08:51:38;20.70;99.90
24408;DHT22;12542;50.924;4.516;2023-08-08T08:54:04;20.70;99.90
24408;DHT22;12542;50.924;4.516;2023-08-08T08:56:30;20.80;99.90
24408;DHT22;12542;50.924;4.516;2023-08-08T08:58:59;20.70;99.90
24408;DHT22;12542;50.924;4.516;2023-08-08T09:01:25;20.70;99.90
24408;DHT22;12542;50.924;4.516;2023-08-08T09:03:52;20.90;99.90
24408;DHT22;12542;50.924;4.516;2023-08-08T09:06:18;21.10;99.90
24408;DHT22;12542;50.924;4.516;2023-08-08T09:08:46;21.30;99.90
24408;DHT22;12542;50.924;4.516;2023-08-08T09:11:12;21.60;99.90
24408;DHT22;12542;50.924;4.516;2023-08-08T09:13:39;22.00;99.90
24408;DHT22;12542;50.924;4.516;2023-08-08T09:16:08;22.20;99.90
24408;DHT22;12542;50.924;4.516;2023-08-08T09:18:34;22.50;99.90
24408;DHT22;12542;50.924;4.516;2023-08-08T09:21:00;22.60;99.90
24408;DHT22;12542;50.924;4.516;2023-08-08T09:23:26;23.00;99.90
24408;DHT22;12542;50.924;4.516;2023-08-08T09:25:52;23.10;99.90
24408;DHT22;12542;50.924;4.516;2023-08-08T09:28:17;23.30;99.90
24408;DHT22;12542;50.924;4.516;2023-08-08T09:30:43;23.20;99.90
24408;DHT22;12542;50.924;4.516;2023-08-08T09:33:11;23.00;99.90
24408;DHT22;12542;50.924;4.516;2023-08-08T09:35:38;22.90;99.90
24408;DHT22;12542;50.924;4.516;2023-08-08T09:38:07;22.90;99.90
24408;DHT22;12542;50.924;4.516;2023-08-08T09:40:33;23.60;99.90
24408;DHT22;12542;50.924;4.516;2023-08-08T09:42:59;23.50;99.90
24408;DHT22;12542;50.924;4.516;2023-08-08T09:45:25;23.40;99.90
24408;DHT22;12542;50.924;4.516;2023-08-08T09:47:51;22.90;99.90
24408;DHT22;12542;50.924;4.516;2023-08-08T09:50:20;24.30;99.90
24408;DHT22;12542;50.924;4.516;2023-08-08T09:52:46;23.20;99.90
24408;DHT22;12542;50.924;4.516;2023-08-08T09:55:13;23.00;99.90
24408;DHT22;12542;50.924;4.516;2023-08-08T09:57:39;22.80;99.90
24408;DHT22;12542;50.924;4.516;2023-08-08T10:00:06;22.50;99.90
24408;DHT22;12542;50.924;4.516;2023-08-08T10:02:44;22.40;99.90
24408;DHT22;12542;50.924;4.516;2023-08-08T10:05:12;21.70;99.90
24408;DHT22;12542;50.924;4.516;2023-08-08T10:07:43;22.20;99.90
24408;DHT22;12542;50.924;4.516;2023-08-08T10:10:09;22.30;99.90
24408;DHT22;12542;50.924;4.516;2023-08-08T10:12:39;22.40;99.90
24408;DHT22;12542;50.924;4.516;2023-08-08T10:15:09;22.40;99.90
24408;DHT22;12542;50.924;4.516;2023-08-08T10:17:36;22.10;99.90
24408;DHT22;12542;50.924;4.516;2023-08-08T10:20:03;21.80;99.90
24408;DHT22;12542;50.924;4.516;2023-08-08T10:22:37;21.60;99.90
24408;DHT22;12542;50.924;4.516;2023-08-08T10:25:04;21.50;99.90
24408;DHT22;12542;50.924;4.516;2023-08-08T10:27:34;21.60;99.90
24408;DHT22;12542;50.924;4.516;2023-08-08T10:30:10;21.80;99.90
24408;DHT22;12542;50.924;4.516;2023-08-08T10:32:43;21.30;99.90
24408;DHT22;12542;50.924;4.516;2023-08-08T10:35:12;21.30;99.90
24408;DHT22;12542;50.924;4.516;2023-08-08T10:37:38;20.20;99.90
24408;DHT22;12542;50.924;4.516;2023-08-08T10:40:06;20.80;99.90
24408;DHT22;12542;50.924;4.516;2023-08-08T10:42:42;20.60;99.90
24408;DHT22;12542;50.924;4.516;2023-08-08T10:45:13;20.50;99.90
24408;DHT22;12542;50.924;4.516;2023-08-08T10:47:39;20.40;99.90
24408;DHT22;12542;50.924;4.516;2023-08-08T10:55:27;20.70;99.90
24408;DHT22;12542;50.924;4.516;2023-08-08T10:57:59;20.90;99.90
24408;DHT22;12542;50.924;4.516;2023-08-08T11:00:36;21.10;99.90
24408;DHT22;12542;50.924;4.516;2023-08-08T11:03:03;21.10;99.90
24408;DHT22;12542;50.924;4.516;2023-08-08T11:05:35;21.20;99.90
24408;DHT22;12542;50.924;4.516;2023-08-08T11:08:03;21.00;99.90
24408;DHT22;12542;50.924;4.516;2023-08-08T11:10:29;21.20;99.90
24408;DHT22;12542;50.924;4.516;2023-08-08T11:13:00;21.30;99.90
24408;DHT22;12542;50.924;4.516;2023-08-08T11:15:26;21.40;99.90
24408;DHT22;12542;50.924;4.516;2023-08-08T11:17:54;21.50;99.90
24408;DHT22;12542;50.924;4.516;2023-08-08T11:20:23;21.70;99.90
24408;DHT22;12542;50.924;4.516;2023-08-08T11:22:56;21.90;99.90
24408;DHT22;12542;50.924;4.516;2023-08-08T11:25:25;22.40;99.90
24408;DHT22;12542;50.924;4.516;2023-08-08T11:27:55;22.50;99.90
24408;DHT22;12542;50.924;4.516;2023-08-08T11:30:22;22.80;99.90
24408;DHT22;12542;50.924;4.516;2023-08-08T11:32:49;23.20;99.90
24408;DHT22;12542;50.924;4.516;2023-08-08T11:35:22;23.60;99.90
24408;DHT22;12542;50.924;4.516;2023-08-08T11:37:52;23.60;99.90
24408;DHT22;12542;50.924;4.516;2023-08-08T11:40:19;23.50;99.90
24408;DHT22;12542;50.924;4.516;2023-08-08T11:42:45;23.70;99.90
24408;DHT22;12542;50.924;4.516;2023-08-08T11:47:39;23.20;99.90
24408;DHT22;12542;50.924;4.516;2023-08-08T11:50:06;22.80;99.90
24408;DHT22;12542;50.924;4.516;2023-08-08T11:52:35;22.90;99.90
24408;DHT22;12542;50.924;4.516;2023-08-08T11:55:01;23.00;99.90
24408;DHT22;12542;50.924;4.516;2023-08-08T11:57:27;23.20;99.90
24408;DHT22;12542;50.924;4.516;2023-08-08T11:59:54;23.50;99.90
24408;DHT22;12542;50.924;4.516;2023-08-08T12:02:19;23.70;99.90
24408;DHT22;12542;50.924;4.516;2023-08-08T12:04:46;23.50;99.90
24408;DHT22;12542;50.924;4.516;2023-08-08T12:07:14;23.50;99.90
24408;DHT22;12542;50.924;4.516;2023-08-08T12:09:40;23.80;99.90
24408;DHT22;12542;50.924;4.516;2023-08-08T12:12:06;23.80;99.90
24408;DHT22;12542;50.924;4.516;2023-08-08T12:14:42;23.60;99.90
24408;DHT22;12542;50.924;4.516;2023-08-08T12:17:09;23.50;99.90
24408;DHT22;12542;50.924;4.516;2023-08-08T12:19:35;24.00;99.90
24408;DHT22;12542;50.924;4.516;2023-08-08T12:22:00;24.30;99.90
24408;DHT22;12542;50.924;4.516;2023-08-08T12:24:26;24.50;99.90
24408;DHT22;12542;50.924;4.516;2023-08-08T12:26:52;24.60;99.90
24408;DHT22;12542;50.924;4.516;2023-08-08T12:29:17;24.70;99.90
24408;DHT22;12542;50.924;4.516;2023-08-08T12:31:43;24.70;99.90
24408;DHT22;12542;50.924;4.516;2023-08-08T12:34:09;24.50;99.90
24408;DHT22;12542;50.924;4.516;2023-08-08T12:36:35;24.30;99.90
24408;DHT22;12542;50.924;4.516;2023-08-08T12:39:01;24.60;99.90
24408;DHT22;12542;50.924;4.516;2023-08-08T12:41:27;24.70;99.90
24408;DHT22;12542;50.924;4.516;2023-08-08T12:43:55;24.80;99.90
24408;DHT22;12542;50.924;4.516;2023-08-08T12:46:20;24.80;99.90
24408;DHT22;12542;50.924;4.516;2023-08-08T12:48:47;24.50;99.90
24408;DHT22;12542;50.924;4.516;2023-08-08T12:51:12;24.10;99.90
24408;DHT22;12542;50.924;4.516;2023-08-08T12:53:38;24.10;99.90
24408;DHT22;12542;50.924;4.516;2023-08-08T12:56:03;24.20;99.90
24408;DHT22;12542;50.924;4.516;2023-08-08T12:58:30;24.20;99.90
24408;DHT22;12542;50.924;4.516;2023-08-08T13:00:55;24.40;99.90
24408;DHT22;12542;50.924;4.516;2023-08-08T13:03:21;24.00;99.90
24408;DHT22;12542;50.924;4.516;2023-08-08T13:05:47;24.10;99.90
24408;DHT22;12542;50.924;4.516;2023-08-08T13:08:12;23.70;99.90
24408;DHT22;12542;50.924;4.516;2023-08-08T13:10:39;23.50;99.90
24408;DHT22;12542;50.924;4.516;2023-08-08T13:13:05;23.40;99.90
24408;DHT22;12542;50.924;4.516;2023-08-08T13:15:31;22.80;99.90
24408;DHT22;12542;50.924;4.516;2023-08-08T13:17:57;23.20;99.90
24408;DHT22;12542;50.924;4.516;2023-08-08T13:20:24;22.90;99.90
24408;DHT22;12542;50.924;4.516;2023-08-08T13:22:50;23.00;99.90
24408;DHT22;12542;50.924;4.516;2023-08-08T13:25:16;22.60;99.90
24408;DHT22;12542;50.924;4.516;2023-08-08T13:27:44;22.60;99.90
24408;DHT22;12542;50.924;4.516;2023-08-08T13:30:10;22.70;99.90
24408;DHT22;12542;50.924;4.516;2023-08-08T13:32:36;22.40;99.90
24408;DHT22;12542;50.924;4.516;2023-08-08T13:35:03;22.50;99.90
24408;DHT22;12542;50.924;4.516;2023-08-08T13:37:28;22.60;99.90
24408;DHT22;12542;50.924;4.516;2023-08-08T13:39:54;22.90;99.90
24408;DHT22;12542;50.924;4.516;2023-08-08T13:42:22;23.10;99.90
24408;DHT22;12542;50.924;4.516;2023-08-08T13:44:50;23.60;99.90
24408;DHT22;12542;50.924;4.516;2023-08-08T13:47:18;23.90;99.90
24408;DHT22;12542;50.924;4.516;2023-08-08T13:52:10;23.60;99.90
24408;DHT22;12542;50.924;4.516;2023-08-08T13:54:36;23.50;99.90
24408;DHT22;12542;50.924;4.516;2023-08-08T13:57:01;23.40;99.90
24408;DHT22;12542;50.924;4.516;2023-08-08T13:59:27;23.40;99.90
24408;DHT22;12542;50.924;4.516;2023-08-08T14:01:53;23.40;99.90
24408;DHT22;12542;50.924;4.516;2023-08-08T14:04:18;23.60;99.90
24408;DHT22;12542;50.924;4.516;2023-08-08T14:06:44;23.80;99.90
24408;DHT22;12542;50.924;4.516;2023-08-08T14:09:10;23.90;99.90
24408;DHT22;12542;50.924;4.516;2023-08-08T14:11:36;23.70;99.90
24408;DHT22;12542;50.924;4.516;2023-08-08T14:14:02;23.70;99.90
24408;DHT22;12542;50.924;4.516;2023-08-08T14:16:27;23.60;99.90
24408;DHT22;12542;50.924;4.516;2023-08-08T14:18:53;23.60;99.90
24408;DHT22;12542;50.924;4.516;2023-08-08T14:21:18;23.40;99.90
24408;DHT22;12542;50.924;4.516;2023-08-08T14:23:44;23.20;99.90
24408;DHT22;12542;50.924;4.516;2023-08-08T14:26:10;23.00;99.90
24408;DHT22;12542;50.924;4.516;2023-08-08T14:28:36;22.80;99.90
24408;DHT22;12542;50.924;4.516;2023-08-08T14:31:02;22.90;99.90
24408;DHT22;12542;50.924;4.516;2023-08-08T14:33:31;22.70;99.90
24408;DHT22;12542;50.924;4.516;2023-08-08T14:35:56;22.60;99.90
24408;DHT22;12542;50.924;4.516;2023-08-08T14:38:25;22.50;99.90
24408;DHT22;12542;50.924;4.516;2023-08-08T14:40:51;22.20;99.90
24408;DHT22;12542;50.924;4.516;2023-08-08T14:43:18;21.90;99.90
24408;DHT22;12542;50.924;4.516;2023-08-08T14:45:44;21.60;99.90
24408;DHT22;12542;50.924;4.516;2023-08-08T14:48:10;21.50;99.90
24408;DHT22;12542;50.924;4.516;2023-08-08T14:50:35;21.20;99.90
24408;DHT22;12542;50.924;4.516;2023-08-08T14:53:03;21.00;99.90
24408;DHT22;12542;50.924;4.516;2023-08-08T14:55:29;21.20;99.90
24408;DHT22;12542;50.924;4.516;2023-08-08T14:57:55;21.10;99.90
24408;DHT22;12542;50.924;4.516;2023-08-08T15:00:21;21.00;99.90
24408;DHT22;12542;50.924;4.516;2023-08-08T15:02:46;21.00;99.90
24408;DHT22;12542;50.924;4.516;2023-08-08T15:05:12;21.00;99.90
24408;DHT22;12542;50.924;4.516;2023-08-08T15:07:38;21.00;99.90
24408;DHT22;12542;50.924;4.516;2023-08-08T15:10:04;21.00;99.90
24408;DHT22;12542;50.924;4.516;2023-08-08T15:12:30;20.90;99.90
24408;DHT22;12542;50.924;4.516;2023-08-08T15:14:58;20.90;99.90
24408;DHT22;12542;50.924;4.516;2023-08-08T15:17:24;21.00;99.90
24408;DHT22;12542;50.924;4.516;2023-08-08T15:19:49;20.90;99.90
24408;DHT22;12542;50.924;4.516;2023-08-08T15:22:15;20.90;99.90
24408;DHT22;12542;50.924;4.516;2023-08-08T15:24:40;20.90;99.90
24408;DHT22;12542;50.924;4.516;2023-08-08T15:27:06;21.10;99.90
24408;DHT22;12542;50.924;4.516;2023-08-08T15:29:32;21.20;99.90
24408;DHT22;12542;50.924;4.516;2023-08-08T15:31:57;21.20;99.90
24408;DHT22;12542;50.924;4.516;2023-08-08T15:34:23;21.00;99.90
24408;DHT22;12542;50.924;4.516;2023-08-08T15:36:49;20.80;99.90
24408;DHT22;12542;50.924;4.516;2023-08-08T15:39:15;20.70;99.90
24408;DHT22;12542;50.924;4.516;2023-08-08T15:41:41;20.70;99.90
24408;DHT22;12542;50.924;4.516;2023-08-08T15:44:06;20.60;99.90
24408;DHT22;12542;50.924;4.516;2023-08-08T15:46:32;20.50;99.90
24408;DHT22;12542;50.924;4.516;2023-08-08T15:48:58;20.60;99.90
24408;DHT22;12542;50.924;4.516;2023-08-08T15:51:23;20.60;99.90
24408;DHT22;12542;50.924;4.516;2023-08-08T15:57:11;20.40;99.90